Time;durP1;ratioP1;P1;durP2;ratioP2;P2;SDS_P1;SDS_P2;PMS_P1;PMS_P2;Temp;Humidity;BMP_temperature;BMP_pressure;BME280_temperature;BME280_humidity;BME280_pressure;Samples;Min_cycle;Max_cycle;Signal;HPM_P1;HPM_P2
2023/03/14 00:01:28;;;;;;;9.95;7.28;;;;;;;3.17;100.00;100974.91;5052402;28;20036;-70
2023/03/14 00:03:54;;;;;;;10.90;7.50;;;;;;;3.10;100.00;100908.66;5050589;28;20029;-72
2023/03/14 00:06:20;;;;;;;12.43;7.45;;;;;;;3.43;100.00;100969.50;5052467;28;20154;-69
2023/03/14 00:08:46;;;;;;;12.07;7.55;;;;;;;3.32;100.00;100960.94;5051527;28;20025;-70
2023/03/14 00:11:14;;;;;;;10.50;7.93;;;;;;;3.48;100.00;100987.19;5051134;28;20491;-70
2023/03/14 00:13:40;;;;;;;13.90;8.10;;;;;;;3.42;100.00;100990.44;5051478;28;20029;-70
2023/03/14 00:16:09;;;;;;;9.75;7.32;;;;;;;3.26;100.00;100963.38;5052076;28;20472;-70
2023/03/14 00:18:35;;;;;;;10.00;6.90;;;;;;;3.06;100.00;100951.25;5050929;28;20119;-71
2023/03/14 00:21:01;;;;;;;11.10;6.90;;;;;;;2.96;100.00;100950.25;5052336;28;20159;-70
2023/03/14 00:23:28;;;;;;;12.43;7.88;;;;;;;3.19;100.00;100979.13;5051107;28;20034;-70
2023/03/14 00:25:58;;;;;;;12.23;8.15;;;;;;;3.04;100.00;100991.44;5051398;28;20102;-70
2023/03/14 00:28:24;;;;;;;13.48;8.70;;;;;;;3.18;100.00;100989.16;5052257;28;20061;-70
2023/03/14 00:30:49;;;;;;;13.10;8.30;;;;;;;3.59;100.00;101005.78;5051116;28;20190;-70
2023/03/14 00:33:15;;;;;;;11.63;8.20;;;;;;;3.25;100.00;100994.31;5052094;28;20033;-70
2023/03/14 00:35:40;;;;;;;13.43;7.75;;;;;;;3.29;100.00;100986.00;5052507;28;20563;-71
2023/03/14 00:38:05;;;;;;;11.05;7.60;;;;;;;3.17;100.00;100978.25;5052075;28;20499;-70
2023/03/14 00:40:31;;;;;;;10.45;6.80;;;;;;;3.19;100.00;100985.84;5052500;28;20024;-69
2023/03/14 00:42:56;;;;;;;12.57;6.78;;;;;;;3.08;100.00;100983.13;5050072;28;20037;-72
2023/03/14 00:45:22;;;;;;;9.32;6.70;;;;;;;3.12;100.00;100968.94;5052060;28;20075;-70
2023/03/14 00:47:47;;;;;;;10.20;6.43;;;;;;;3.17;100.00;100983.28;5049996;28;20434;-70
2023/03/14 00:50:13;;;;;;;9.45;6.43;;;;;;;2.57;100.00;100919.41;5051549;28;20407;-70
2023/03/14 00:52:38;;;;;;;11.57;7.32;;;;;;;3.30;100.00;100977.66;5051922;28;20044;-71
2023/03/14 00:55:04;;;;;;;12.68;7.65;;;;;;;3.06;100.00;100957.13;5051270;28;20036;-71
2023/03/14 00:57:29;;;;;;;13.85;7.97;;;;;;;3.17;100.00;100980.78;5051578;28;20021;-70
2023/03/14 00:59:55;;;;;;;14.32;8.07;;;;;;;3.19;100.00;100970.78;5050646;28;20029;-69
2023/03/14 01:02:21;;;;;;;16.13;8.50;;;;;;;3.10;100.00;100976.47;5050152;28;20072;-70
2023/03/14 01:04:49;;;;;;;15.48;8.50;;;;;;;2.72;100.00;100932.22;5051572;28;20116;-69
2023/03/14 01:07:15;;;;;;;14.45;9.27;;;;;;;2.70;100.00;100963.13;5050067;28;20029;-70
2023/03/14 01:09:41;;;;;;;14.90;8.80;;;;;;;2.94;100.00;100919.25;5049443;28;20037;-69
2023/03/14 01:12:06;;;;;;;14.15;7.65;;;;;;;2.62;100.00;100910.28;5049546;28;20082;-70
2023/03/14 01:14:32;;;;;;;9.75;6.35;;;;;;;2.58;100.00;100974.63;5051041;28;20033;-70
2023/03/14 01:17:00;;;;;;;10.88;5.72;;;;;;;2.33;100.00;100916.41;5051155;28;20035;-70
2023/03/14 01:19:27;;;;;;;13.77;6.55;;;;;;;2.71;100.00;100964.81;5051321;28;20063;-70
2023/03/14 01:21:53;;;;;;;11.40;6.53;;;;;;;2.18;100.00;100868.44;5049828;28;20117;-71
2023/03/14 01:24:18;;;;;;;10.35;6.55;;;;;;;2.91;100.00;100956.00;5050231;28;20112;-71
2023/03/14 01:26:44;;;;;;;12.32;6.70;;;;;;;2.20;100.00;100906.94;5050573;28;20028;-69
2023/03/14 01:29:09;;;;;;;12.35;7.22;;;;;;;2.26;100.00;100897.84;5051329;28;20506;-70
2023/03/14 01:31:35;;;;;;;12.27;7.78;;;;;;;2.32;100.00;100908.03;5049344;28;20506;-70
2023/03/14 01:34:00;;;;;;;14.15;8.00;;;;;;;2.09;100.00;100903.34;5046607;28;20156;-74
2023/03/14 01:36:25;;;;;;;12.38;7.03;;;;;;;2.31;100.00;100903.84;5051079;28;20090;-70
2023/03/14 01:38:51;;;;;;;13.40;6.97;;;;;;;2.14;100.00;100886.75;5049378;28;20037;-70
2023/03/14 01:41:21;;;;;;;13.57;6.82;;;;;;;2.42;100.00;100884.81;5050753;28;20025;-70
2023/03/14 01:43:48;;;;;;;9.90;5.32;;;;;;;1.81;100.00;100844.28;5050971;28;20502;-70
2023/03/14 01:46:19;;;;;;;10.65;5.63;;;;;;;2.59;100.00;100928.63;5051101;28;20212;-71
2023/03/14 01:48:52;;;;;;;8.32;5.57;;;;;;;2.36;100.00;100919.81;5051067;28;20020;-70
2023/03/14 01:51:20;;;;;;;11.45;7.35;;;;;;;2.32;100.00;100872.91;5050556;28;20574;-70
2023/03/14 01:53:47;;;;;;;13.57;7.88;;;;;;;2.10;100.00;100874.97;5050189;28;20068;-69
2023/03/14 01:56:17;;;;;;;15.20;7.07;;;;;;;2.39;100.00;100914.00;5050594;28;20039;-70
2023/03/14 01:58:47;;;;;;;8.57;6.10;;;;;;;2.40;100.00;100910.66;5049290;28;20071;-69
2023/03/14 02:01:16;;;;;;;15.07;6.95;;;;;;;2.07;100.00;100872.38;5050356;28;20043;-70
2023/03/14 02:03:50;;;;;;;12.63;7.40;;;;;;;2.22;100.00;100871.03;5049428;28;20090;-70
2023/03/14 02:06:27;;;;;;;11.98;7.90;;;;;;;1.96;100.00;100876.34;5050521;28;20028;-70
2023/03/14 02:08:54;;;;;;;17.10;8.40;;;;;;;1.96;100.00;100866.31;5049122;28;20029;-70
2023/03/14 02:11:20;;;;;;;11.85;6.97;;;;;;;2.04;100.00;100920.78;5049452;28;20029;-70
2023/03/14 02:13:48;;;;;;;11.35;6.68;;;;;;;2.06;100.00;100905.81;5049971;28;20036;-70
2023/03/14 02:16:13;;;;;;;9.30;6.50;;;;;;;2.07;100.00;100910.00;5050282;28;20122;-70
2023/03/14 02:18:40;;;;;;;10.52;5.60;;;;;;;1.63;100.00;100909.00;5049529;28;20451;-70
2023/03/14 02:21:20;;;;;;;9.88;6.00;;;;;;;1.78;100.00;100921.91;5050474;28;20509;-71
2023/03/14 02:24:12;;;;;;;8.18;5.80;;;;;;;1.59;100.00;100919.78;5050293;28;20025;-70
2023/03/14 02:27:03;;;;;;;10.20;6.30;;;;;;;1.86;100.00;100900.38;5050748;28;20120;-70
2023/03/14 02:29:33;;;;;;;13.73;6.60;;;;;;;1.40;100.00;100850.91;5050611;28;20040;-70
2023/03/14 02:31:58;;;;;;;17.70;9.88;;;;;;;1.50;100.00;100882.84;5050099;28;20033;-71
2023/03/14 02:34:25;;;;;;;13.90;8.15;;;;;;;1.88;100.00;100910.41;5050203;28;20039;-70
2023/03/14 02:36:52;;;;;;;13.85;7.13;;;;;;;1.48;100.00;100916.19;5050535;28;20033;-71
2023/03/14 02:39:44;;;;;;;10.75;5.93;;;;;;;1.38;100.00;100930.16;5049923;28;20044;-70
2023/03/14 02:42:09;;;;;;;12.05;6.22;;;;;;;1.29;100.00;100877.31;5049890;28;20114;-70
2023/03/14 02:44:35;;;;;;;11.13;6.50;;;;;;;1.40;100.00;100920.16;5048517;28;20462;-70
2023/03/14 02:47:02;;;;;;;12.27;7.20;;;;;;;1.51;100.00;100902.06;5050162;28;20029;-70
2023/03/14 02:49:32;;;;;;;12.50;6.75;;;;;;;1.76;100.00;100846.66;5049532;28;20032;-70
2023/03/14 02:51:58;;;;;;;13.90;7.30;;;;;;;2.10;100.00;100903.38;5049891;28;20037;-70
2023/03/14 02:54:23;;;;;;;18.33;9.40;;;;;;;1.92;100.00;100897.13;5049279;28;20419;-70
2023/03/14 02:56:49;;;;;;;12.73;7.47;;;;;;;1.83;100.00;100855.19;5048838;28;20116;-70
2023/03/14 02:59:14;;;;;;;14.60;7.20;;;;;;;1.20;100.00;100854.59;5048902;28;20438;-71
2023/03/14 03:01:39;;;;;;;11.80;6.70;;;;;;;1.98;100.00;100894.75;5049808;28;20124;-70
2023/03/14 03:04:05;;;;;;;11.55;6.90;;;;;;;1.63;100.00;100842.22;5049370;28;20075;-70
2023/03/14 03:06:40;;;;;;;14.75;7.38;;;;;;;1.24;100.00;100855.50;5053981;28;20028;-70
2023/03/14 03:09:05;;;;;;;15.40;7.10;;;;;;;1.10;100.00;100846.81;5053509;28;20495;-70
2023/03/14 03:11:31;;;;;;;13.85;7.60;;;;;;;1.61;100.00;100893.09;5053422;28;20032;-71
2023/03/14 03:13:57;;;;;;;11.93;6.97;;;;;;;1.56;100.00;100894.66;5053321;28;20059;-70
2023/03/14 03:16:22;;;;;;;11.48;7.03;;;;;;;1.61;100.00;100886.44;5054208;28;20051;-71
2023/03/14 03:18:47;;;;;;;14.98;7.65;;;;;;;1.84;100.00;100873.56;5049767;28;20034;-70
2023/03/14 03:21:13;;;;;;;14.63;7.97;;;;;;;1.44;100.00;100832.63;5033805;28;20123;-70
2023/03/14 03:23:38;;;;;;;15.77;8.77;;;;;;;1.63;100.00;100878.94;5033441;28;20065;-71
2023/03/14 03:26:04;;;;;;;20.67;10.07;;;;;;;1.30;100.00;100823.94;5033563;28;20057;-70
2023/03/14 03:28:29;;;;;;;32.28;14.38;;;;;;;1.48;100.00;100878.63;5033479;28;20546;-70
2023/03/14 03:30:55;;;;;;;28.83;13.45;;;;;;;1.37;100.00;100817.41;5038968;28;20029;-70
2023/03/14 03:33:22;;;;;;;21.65;11.32;;;;;;;1.55;100.00;100863.75;5053495;28;20155;-71
2023/03/14 03:35:49;;;;;;;21.52;10.57;;;;;;;1.70;100.00;100818.16;5047433;28;20113;-70
2023/03/14 03:38:15;;;;;;;19.40;9.45;;;;;;;1.71;100.00;100823.19;5037940;28;20021;-70
2023/03/14 03:40:41;;;;;;;17.40;9.43;;;;;;;1.69;100.00;100856.53;5053042;28;20033;-71
2023/03/14 03:43:07;;;;;;;14.13;9.35;;;;;;;1.53;100.00;100791.88;5053080;28;20044;-72
2023/03/14 03:45:32;;;;;;;14.98;8.88;;;;;;;1.89;100.00;100860.31;5050168;28;20025;-70
2023/03/14 03:47:58;;;;;;;15.30;8.75;;;;;;;1.19;100.00;100775.28;5052882;28;20033;-71
2023/03/14 03:50:23;;;;;;;16.50;8.05;;;;;;;1.44;100.00;100821.75;5051881;28;20503;-70
2023/03/14 03:52:48;;;;;;;15.20;8.30;;;;;;;1.62;100.00;100860.56;5053066;28;20107;-71
2023/03/14 03:55:14;;;;;;;17.17;8.02;;;;;;;1.08;100.00;100811.75;5052110;28;20083;-71
2023/03/14 03:57:39;;;;;;;16.33;8.32;;;;;;;1.33;100.00;100860.72;5053046;28;20064;-71
2023/03/14 04:00:08;;;;;;;22.30;7.68;;;;;;;1.14;100.00;100819.41;5053448;28;20086;-71
2023/03/14 04:02:34;;;;;;;19.75;9.50;;;;;;;0.76;100.00;100802.63;5053506;28;20094;-71
2023/03/14 04:04:59;;;;;;;20.15;9.75;;;;;;;1.24;100.00;100858.88;5053036;28;20041;-71
2023/03/14 04:07:25;;;;;;;18.27;8.90;;;;;;;0.67;100.00;100770.69;5053004;28;20025;-71
2023/03/14 04:09:50;;;;;;;17.25;8.23;;;;;;;1.11;100.00;100856.84;5050862;28;20124;-71
2023/03/14 04:12:16;;;;;;;21.92;9.35;;;;;;;1.51;100.00;100867.00;5051124;28;20115;-73
2023/03/14 04:14:41;;;;;;;21.10;10.02;;;;;;;1.47;100.00;100865.25;5050734;28;20064;-71
2023/03/14 04:17:09;;;;;;;16.98;9.32;;;;;;;1.08;100.00;100844.28;5044088;28;20079;-71
2023/03/14 04:19:34;;;;;;;18.65;12.18;;;;;;;1.12;100.00;100866.06;5039496;28;20045;-71
2023/03/14 04:21:59;;;;;;;21.17;11.20;;;;;;;0.80;100.00;100802.72;5050490;28;20115;-72
2023/03/14 04:24:25;;;;;;;18.52;10.13;;;;;;;0.92;100.00;100858.88;5050845;28;20029;-71
2023/03/14 04:26:50;;;;;;;16.20;9.75;;;;;;;0.61;100.00;100812.25;5048127;28;20044;-71
2023/03/14 04:29:16;;;;;;;17.83;10.23;;;;;;;0.81;100.00;100816.09;5032696;28;20076;-71
2023/03/14 04:31:41;;;;;;;18.77;11.35;;;;;;;1.52;100.00;100855.34;5049323;28;20052;-71
2023/03/14 04:34:07;;;;;;;19.67;12.40;;;;;;;1.48;100.00;100854.41;5051160;28;20556;-72
2023/03/14 04:36:32;;;;;;;23.95;12.23;;;;;;;1.54;100.00;100852.06;5041763;28;20040;-70
2023/03/14 04:38:58;;;;;;;26.55;12.35;;;;;;;1.76;100.00;100850.84;5051096;28;20032;-71
2023/03/14 04:41:23;;;;;;;26.95;13.15;;;;;;;1.20;100.00;100819.53;5051040;28;20024;-71
2023/03/14 04:43:49;;;;;;;23.48;12.07;;;;;;;1.34;100.00;100850.75;5050945;28;20028;-70
2023/03/14 04:46:14;;;;;;;21.48;11.25;;;;;;;1.53;100.00;100849.50;5050466;28;20029;-70
2023/03/14 04:48:40;;;;;;;18.30;10.63;;;;;;;1.28;100.00;100849.75;5051610;28;20179;-69
2023/03/14 04:51:05;;;;;;;19.65;10.25;;;;;;;0.97;100.00;100805.63;5051170;28;20065;-69
2023/03/14 04:53:31;;;;;;;16.55;9.63;;;;;;;1.67;100.00;100833.09;5049017;28;20090;-70
2023/03/14 04:55:56;;;;;;;19.27;9.43;;;;;;;1.53;100.00;100854.50;5030067;28;20033;-71
2023/03/14 04:58:22;;;;;;;18.25;9.68;;;;;;;1.26;100.00;100791.28;5031617;28;20041;-69
2023/03/14 05:00:48;;;;;;;18.63;9.63;;;;;;;1.73;100.00;100845.75;5031320;28;20068;-72
2023/03/14 05:03:15;;;;;;;19.05;11.07;;;;;;;2.25;100.00;100775.81;5032404;28;20029;-73
2023/03/14 05:05:41;;;;;;;20.80;12.60;;;;;;;2.24;100.00;100838.47;5056144;28;20025;-68
2023/03/14 05:08:06;;;;;;;20.52;14.15;;;;;;;1.82;100.00;100818.41;5031929;28;20029;-70
2023/03/14 05:10:32;;;;;;;25.77;14.93;;;;;;;2.13;100.00;100835.75;5031200;28;20041;-70
2023/03/14 05:12:57;;;;;;;26.40;15.80;;;;;;;2.04;100.00;100837.22;5030298;28;20479;-70
2023/03/14 05:15:23;;;;;;;27.38;17.30;;;;;;;3.00;100.00;100783.75;5039816;28;20017;-70
2023/03/14 05:17:49;;;;;;;20.27;13.40;;;;;;;4.45;100.00;100835.94;5034395;28;20042;-70
2023/03/14 05:20:15;;;;;;;17.65;11.77;;;;;;;7.26;100.00;100812.06;5030970;28;20036;-70
2023/03/14 05:22:41;;;;;;;21.70;11.68;;;;;;;7.98;100.00;100842.25;5046247;28;20070;-70
2023/03/14 05:25:07;;;;;;;18.20;11.00;;;;;;;7.68;100.00;100860.91;5051298;28;20127;-70
2023/03/14 05:27:33;;;;;;;21.85;12.20;;;;;;;6.44;100.00;100872.63;5050568;28;20033;-69
2023/03/14 05:29:58;;;;;;;16.40;11.80;;;;;;;4.57;100.00;100885.56;5050184;28;20079;-69
2023/03/14 05:32:24;;;;;;;23.80;13.95;;;;;;;3.53;100.00;100897.63;5049712;28;20510;-70
2023/03/14 05:34:49;;;;;;;22.27;14.32;;;;;;;3.22;100.00;100893.78;5049434;28;20219;-70
2023/03/14 05:37:14;;;;;;;20.88;12.10;;;;;;;3.27;100.00;100898.88;5049442;28;20496;-70
2023/03/14 05:39:41;;;;;;;33.60;15.75;;;;;;;3.42;100.00;100842.19;5049211;28;20516;-70
2023/03/14 05:42:06;;;;;;;25.45;12.93;;;;;;;3.42;100.00;100837.16;5050574;28;20028;-73
2023/03/14 05:44:32;;;;;;;16.60;9.38;;;;;;;4.49;100.00;100882.97;5048886;28;20437;-70
2023/03/14 05:46:57;;;;;;;15.00;8.65;;;;;;;4.04;100.00;100885.75;5045815;28;20120;-70
2023/03/14 05:49:22;;;;;;;15.77;10.75;;;;;;;4.18;100.00;100880.94;5047328;28;20025;-70
2023/03/14 05:51:48;;;;;;;22.92;15.98;;;;;;;4.18;100.00;100876.72;5049954;28;20423;-70
2023/03/14 05:54:13;;;;;;;22.15;15.48;;;;;;;3.62;100.00;100829.91;5049531;28;20047;-71
2023/03/14 05:56:39;;;;;;;36.58;19.42;;;;;;;4.10;100.00;100888.34;5048922;28;20506;-70
2023/03/14 05:59:04;;;;;;;19.27;14.50;;;;;;;3.95;100.00;100887.31;5050523;28;20371;-70
2023/03/14 06:01:30;;;;;;;25.48;17.08;;;;;;;4.65;100.00;100829.44;5050177;28;20483;-71
2023/03/14 06:03:56;;;;;;;25.98;12.70;;;;;;;4.89;100.00;100876.66;5049208;28;20580;-70
2023/03/14 06:06:21;;;;;;;19.42;8.63;;;;;;;4.58;100.00;100812.56;5049422;28;20036;-71
2023/03/14 06:08:46;;;;;;;18.50;10.20;;;;;;;4.88;100.00;100834.66;5047953;28;20116;-72
2023/03/14 06:11:12;;;;;;;15.30;8.60;;;;;;;4.29;100.00;100871.81;5048817;28;20040;-70
2023/03/14 06:13:37;;;;;;;16.98;8.45;;;;;;;4.83;100.00;100798.53;5049708;28;20033;-71
2023/03/14 06:16:03;;;;;;;25.15;13.40;;;;;;;4.84;100.00;100843.88;5049510;28;20021;-70
2023/03/14 06:18:28;;;;;;;14.73;10.27;;;;;;;5.64;100.00;100867.19;5047732;28;20473;-69
2023/03/14 06:20:55;;;;;;;14.55;9.80;;;;;;;5.68;100.00;100853.75;5048640;28;20028;-70
2023/03/14 06:23:21;;;;;;;13.57;8.75;;;;;;;5.86;100.00;100898.47;5050534;28;20043;-70
2023/03/14 06:25:47;;;;;;;14.23;8.32;;;;;;;5.20;100.00;100838.28;5050751;28;20119;-70
2023/03/14 06:28:12;;;;;;;13.45;8.70;;;;;;;6.30;100.00;100881.00;5050703;28;20033;-69
2023/03/14 06:30:38;;;;;;;16.83;8.48;;;;;;;6.73;100.00;100891.25;5050282;28;20052;-70
2023/03/14 06:33:03;;;;;;;20.27;12.02;;;;;;;6.00;100.00;100867.41;5050494;28;20029;-70
2023/03/14 06:35:29;;;;;;;17.42;10.38;;;;;;;6.55;100.00;100913.94;5049491;28;20044;-70
2023/03/14 06:37:54;;;;;;;19.20;11.35;;;;;;;7.16;100.00;100866.00;5050002;28;20052;-70
2023/03/14 06:40:20;;;;;;;16.58;10.18;;;;;;;7.23;100.00;100901.41;5051363;28;20033;-71
2023/03/14 06:42:45;;;;;;;17.17;9.13;;;;;;;6.86;100.00;100904.72;5054222;28;20033;-69
2023/03/14 06:45:11;;;;;;;15.75;9.20;;;;;;;7.56;100.00;100909.00;5053238;28;20025;-69
2023/03/14 06:47:37;;;;;;;17.98;11.90;;;;;;;7.17;100.00;100913.22;5052531;28;20037;-70
2023/03/14 06:50:05;;;;;;;21.92;10.95;;;;;;;6.76;100.00;100908.06;5054185;28;20037;-70
2023/03/14 06:52:31;;;;;;;17.17;10.32;;;;;;;8.07;100.00;100905.53;5052375;28;20461;-70
2023/03/14 06:54:56;;;;;;;17.23;10.00;;;;;;;8.18;100.00;100924.03;5052316;28;20082;-70
2023/03/14 06:57:22;;;;;;;14.65;9.60;;;;;;;7.63;100.00;100937.66;5053682;28;20482;-70
2023/03/14 06:59:47;;;;;;;14.95;10.50;;;;;;;7.54;100.00;100894.66;5053882;28;20028;-69
2023/03/14 07:02:13;;;;;;;14.52;10.70;;;;;;;8.82;100.00;100934.78;5053645;28;20178;-70
2023/03/14 07:04:38;;;;;;;22.30;12.30;;;;;;;8.00;100.00;100886.13;5052496;28;20040;-71
2023/03/14 07:07:04;;;;;;;16.83;10.80;;;;;;;8.50;100.00;100860.59;5053373;28;20037;-69
2023/03/14 07:09:30;;;;;;;16.38;10.70;;;;;;;8.42;100.00;100916.38;5053288;28;20081;-69
2023/03/14 07:11:55;;;;;;;16.67;8.77;;;;;;;7.60;100.00;100884.53;5053807;28;20032;-69
2023/03/14 07:14:20;;;;;;;17.50;7.72;;;;;;;9.53;100.00;100935.13;5051978;28;20036;-70
2023/03/14 07:16:46;;;;;;;12.75;9.07;;;;;;;8.51;100.00;100907.91;5053588;28;20480;-70
2023/03/14 07:19:11;;;;;;;13.02;8.05;;;;;;;9.49;100.00;100903.00;5052907;28;20028;-70
2023/03/14 07:21:37;;;;;;;14.60;10.35;;;;;;;8.49;100.00;100942.56;5053703;28;20029;-70
2023/03/14 07:24:03;;;;;;;14.10;9.52;;;;;;;8.94;100.00;100919.50;5053460;28;20472;-70
2023/03/14 07:26:28;;;;;;;13.85;9.73;;;;;;;9.68;100.00;100873.25;5053513;28;20033;-71
2023/03/14 07:28:53;;;;;;;10.55;5.75;;;;;;;9.99;100.00;100920.31;5053512;28;20439;-70
2023/03/14 07:31:19;;;;;;;8.70;5.15;;;;;;;9.43;100.00;100925.91;5051761;28;20032;-69
2023/03/14 07:33:44;;;;;;;17.23;10.57;;;;;;;8.77;100.00;100940.75;5052901;28;20049;-71
2023/03/14 07:36:10;;;;;;;10.35;5.50;;;;;;;8.71;100.00;100885.84;5053324;28;20029;-72
2023/03/14 07:38:36;;;;;;;9.20;3.65;;;;;;;10.10;100.00;100917.69;5051535;28;20041;-70
2023/03/14 07:41:03;;;;;;;5.47;3.60;;;;;;;9.82;100.00;100937.44;5052252;28;20029;-71
2023/03/14 07:43:29;;;;;;;11.25;5.35;;;;;;;9.34;100.00;100879.47;5051736;28;20029;-71
2023/03/14 07:45:54;;;;;;;12.30;4.75;;;;;;;9.90;100.00;100872.16;5051868;28;20032;-71
2023/03/14 07:48:21;;;;;;;9.93;4.88;;;;;;;10.29;100.00;100914.09;5052080;28;20025;-72
2023/03/14 07:50:51;;;;;;;11.50;5.18;;;;;;;10.33;100.00;100916.56;5053421;28;20128;-71
2023/03/14 07:53:17;;;;;;;7.45;4.00;;;;;;;10.16;100.00;100917.63;5052258;28;20025;-70
2023/03/14 07:55:43;;;;;;;5.20;3.47;;;;;;;10.59;100.00;100880.66;5053040;28;20112;-70
2023/03/14 07:58:08;;;;;;;7.07;3.38;;;;;;;10.95;100.00;100864.84;5053239;28;20131;-71
2023/03/14 08:00:34;;;;;;;6.10;3.15;;;;;;;10.44;100.00;100871.53;5050894;28;20146;-71
2023/03/14 08:02:59;;;;;;;6.57;3.08;;;;;;;10.07;100.00;100844.00;5052999;28;20040;-74
2023/03/14 08:05:25;;;;;;;6.60;2.80;;;;;;;10.76;100.00;100916.00;5052610;28;20498;-70
2023/03/14 08:07:50;;;;;;;6.68;2.92;;;;;;;11.38;100.00;100870.09;5052421;28;20025;-70
2023/03/14 08:10:22;;;;;;;7.93;3.10;;;;;;;11.00;100.00;100896.16;5052778;28;20025;-69
2023/03/14 08:12:53;;;;;;;8.38;2.58;;;;;;;10.88;100.00;100859.88;5052545;28;20082;-70
2023/03/14 08:15:18;;;;;;;5.03;2.42;;;;;;;10.68;100.00;100912.72;5051090;28;20036;-70
2023/03/14 08:17:44;;;;;;;3.92;1.70;;;;;;;11.41;100.00;100920.13;5052530;28;20380;-70
2023/03/14 08:20:11;;;;;;;4.88;2.50;;;;;;;10.45;100.00;100895.25;5052064;28;20114;-70
2023/03/14 08:22:37;;;;;;;4.28;2.28;;;;;;;10.42;100.00;100885.94;5052298;28;20187;-70
2023/03/14 08:25:02;;;;;;;5.22;2.50;;;;;;;10.35;100.00;100916.56;5051052;28;20539;-71
2023/03/14 08:27:28;;;;;;;7.95;3.67;;;;;;;11.33;100.00;100872.72;5051505;28;20032;-70
2023/03/14 08:29:53;;;;;;;6.05;2.20;;;;;;;10.63;100.00;100955.19;5052299;28;20021;-71
2023/03/14 08:32:19;;;;;;;4.72;1.95;;;;;;;11.57;100.00;100889.28;5052002;28;20033;-70
2023/03/14 08:34:46;;;;;;;8.75;3.25;;;;;;;11.32;100.00;100941.50;5052046;28;20108;-71
2023/03/14 08:37:11;;;;;;;9.20;4.55;;;;;;;11.77;100.00;100927.16;5052394;28;20040;-70
2023/03/14 08:39:36;;;;;;;15.10;5.80;;;;;;;12.54;100.00;100902.75;5051847;28;20029;-71
2023/03/14 08:42:02;;;;;;;5.68;3.53;;;;;;;12.21;100.00;100927.19;5050866;28;20029;-74
2023/03/14 08:44:28;;;;;;;4.13;2.10;;;;;;;12.57;100.00;100933.28;5051030;28;20025;-70
2023/03/14 08:46:53;;;;;;;4.90;1.58;;;;;;;11.04;100.00;100973.28;5052137;28;20040;-70
2023/03/14 08:49:18;;;;;;;4.55;2.00;;;;;;;12.21;100.00;101006.25;5051225;28;20115;-70
2023/03/14 08:51:44;;;;;;;4.82;1.90;;;;;;;12.23;100.00;101026.59;5051910;28;20451;-71
2023/03/14 08:54:12;;;;;;;5.65;2.60;;;;;;;10.19;100.00;101021.75;5050214;28;20032;-70
2023/03/14 08:56:38;;;;;;;5.93;2.60;;;;;;;11.79;100.00;100995.06;5051454;28;20060;-70
2023/03/14 08:59:04;;;;;;;5.75;2.25;;;;;;;11.93;100.00;100956.63;5051723;28;20111;-71
2023/03/14 09:01:30;;;;;;;6.13;1.95;;;;;;;12.21;100.00;101003.69;5051596;28;20029;-70
2023/03/14 09:03:55;;;;;;;5.95;2.40;;;;;;;11.89;100.00;100953.28;5050939;28;20761;-70
2023/03/14 09:06:20;;;;;;;4.80;2.20;;;;;;;12.43;100.00;101001.56;5051109;28;20094;-69
2023/03/14 09:08:46;;;;;;;4.38;2.50;;;;;;;12.08;100.00;101064.22;5050236;28;20465;-70
2023/03/14 09:11:12;;;;;;;6.47;2.40;;;;;;;11.70;100.00;101018.16;5051054;28;20056;-70
2023/03/14 09:13:38;;;;;;;5.88;2.95;;;;;;;12.77;100.00;101020.47;5051271;28;20031;-69
2023/03/14 09:16:04;;;;;;;7.15;2.78;;;;;;;13.38;100.00;101076.22;5051563;28;20117;-69
2023/03/14 09:18:29;;;;;;;7.55;2.47;;;;;;;13.07;100.00;101092.16;5051293;28;20040;-72
2023/03/14 09:20:56;;;;;;;6.15;3.45;;;;;;;13.35;100.00;101069.44;5049785;28;20037;-70
2023/03/14 09:23:21;;;;;;;7.18;5.28;;;;;;;13.08;100.00;100983.25;5051049;28;20033;-70
2023/03/14 09:25:47;;;;;;;7.25;2.30;;;;;;;13.02;100.00;100848.88;5049643;28;20121;-70
2023/03/14 09:28:12;;;;;;;7.32;3.50;;;;;;;12.87;100.00;100621.28;5051403;28;20021;-70
2023/03/14 09:30:38;;;;;;;5.88;2.95;;;;;;;13.01;100.00;100361.41;5051747;28;20479;-70
2023/03/14 09:33:04;;;;;;;6.35;2.38;;;;;;;13.35;100.00;99930.44;5050817;28;20052;-70
2023/03/14 09:35:29;;;;;;;3.53;1.80;;;;;;;13.77;100.00;99567.59;5051221;28;20112;-70
2023/03/14 09:37:55;;;;;;;5.72;2.50;;;;;;;12.01;100.00;99279.03;5050517;28;20071;-70
2023/03/14 09:40:22;;;;;;;5.25;2.15;;;;;;;13.43;100.00;99215.97;5050989;28;20510;-70
2023/03/14 09:42:51;;;;;;;8.65;2.42;;;;;;;12.91;100.00;99010.31;5050858;28;20033;-70
2023/03/14 09:45:31;;;;;;;7.25;2.33;;;;;;;13.32;100.00;98855.78;5049366;28;20037;-70
2023/03/14 09:47:58;;;;;;;10.30;4.03;;;;;;;13.86;100.00;98939.41;5051154;28;20068;-70
2023/03/14 09:50:25;;;;;;;6.85;3.20;;;;;;;13.63;100.00;98852.25;5050651;28;20067;-70
2023/03/14 09:52:59;;;;;;;5.25;2.30;;;;;;;13.92;100.00;98862.41;5049540;28;20038;-70
2023/03/14 09:55:24;;;;;;;5.38;2.53;;;;;;;12.60;100.00;98989.84;5049281;28;20452;-70
2023/03/14 09:57:54;;;;;;;2.70;1.98;;;;;;;13.41;100.00;98977.78;5050477;28;20056;-71
2023/03/14 10:00:27;;;;;;;8.13;2.13;;;;;;;14.20;100.00;99103.63;5050635;28;20032;-70
2023/03/14 10:02:56;;;;;;;4.05;1.80;;;;;;;14.67;100.00;99184.44;5049182;28;20550;-70
2023/03/14 10:05:24;;;;;;;2.63;1.70;;;;;;;15.02;100.00;99346.19;5049093;28;20036;-70
2023/03/14 10:07:50;;;;;;;3.65;1.83;;;;;;;13.88;100.00;99538.06;5050662;28;20483;-70
2023/03/14 10:10:19;;;;;;;8.00;2.70;;;;;;;14.52;100.00;99639.75;5050510;28;20037;-71
2023/03/14 10:12:55;;;;;;;3.35;1.90;;;;;;;14.92;100.00;99749.50;5049770;28;20499;-70
2023/03/14 10:15:32;;;;;;;4.63;2.25;;;;;;;14.32;100.00;99824.06;5050026;28;20025;-70
2023/03/14 10:18:00;;;;;;;3.13;2.00;;;;;;;15.10;100.00;99899.66;5050745;28;20064;-70
2023/03/14 10:20:34;;;;;;;3.10;2.00;;;;;;;15.10;100.00;99922.72;5050246;28;20039;-70
2023/03/14 10:23:24;;;;;;;9.43;2.83;;;;;;;14.21;100.00;99892.72;5050145;28;20037;-70
2023/03/14 10:26:17;;;;;;;4.05;2.20;;;;;;;14.27;100.00;99903.50;5051152;28;20021;-71
2023/03/14 10:28:48;;;;;;;3.05;2.20;;;;;;;13.58;100.00;99994.22;5044874;28;20490;-73
2023/03/14 10:31:14;;;;;;;6.87;1.83;;;;;;;15.10;100.00;99980.78;5050803;28;20029;-72
2023/03/14 10:33:41;;;;;;;5.05;2.40;;;;;;;15.07;100.00;99960.44;5050235;28;20040;-73
2023/03/14 10:36:21;;;;;;;5.80;2.30;;;;;;;14.83;100.00;100025.56;5049260;28;20120;-73
2023/03/14 10:38:46;;;;;;;4.43;2.10;;;;;;;13.67;100.00;100055.16;5050282;28;20047;-71
2023/03/14 10:41:33;;;;;;;6.15;2.42;;;;;;;13.01;100.00;100011.75;5049843;28;20485;-73
2023/03/14 10:44:01;;;;;;;4.32;2.08;;;;;;;14.35;100.00;100014.00;5050701;28;20020;-71
2023/03/14 10:46:30;;;;;;;4.18;2.40;;;;;;;15.88;100.00;100050.53;5049991;28;20060;-69
2023/03/14 10:48:56;;;;;;;3.28;2.10;;;;;;;15.69;100.00;100058.25;5050172;28;20047;-70
2023/03/14 10:51:29;;;;;;;4.88;2.20;;;;;;;14.50;100.00;100049.16;5049962;28;20127;-71
2023/03/14 10:54:01;;;;;;;3.90;2.08;;;;;;;15.10;100.00;100066.13;5049690;28;20123;-69
2023/03/14 10:56:34;;;;;;;12.10;6.35;;;;;;;15.53;100.00;100094.03;5050067;28;20040;-70
2023/03/14 10:59:00;;;;;;;5.32;2.50;;;;;;;15.41;100.00;100047.63;5050048;28;20029;-70
2023/03/14 11:01:44;;;;;;;4.38;1.83;;;;;;;15.46;100.00;100079.84;5047959;28;20060;-70
2023/03/14 11:04:31;;;;;;;2.45;1.70;;;;;;;15.20;100.00;100058.84;5049670;28;20029;-70
2023/03/14 11:07:13;;;;;;;3.15;1.75;;;;;;;15.74;100.00;100051.19;5049387;28;20522;-70
2023/03/14 11:09:44;;;;;;;6.28;1.73;;;;;;;15.01;100.00;100101.56;5050480;28;20036;-70
2023/03/14 11:12:28;;;;;;;2.65;1.60;;;;;;;15.68;100.00;100101.91;5048505;28;20075;-70
2023/03/14 11:15:02;;;;;;;4.00;2.10;;;;;;;15.43;100.00;100100.47;5048777;28;20029;-70
2023/03/14 11:17:46;;;;;;;3.22;2.05;;;;;;;15.47;98.30;100090.91;5049756;28;20036;-70